Terminal Aerodrome Forecast
Issued by NWS Wilmington, OH

Current Version | Previous Version | Graphics & Text | Print | Product List | Glossary On
Versions: 1 2 3 4 5 6 7 8 9 10 11 12 13 14 15 16 17 18 19 20 21 22 23 24
000
FTUS41 KILN 300805 AAA
TAFDAY
TAF AMD
KDAY 300805Z 3008/0106 04007KT 6SM BR VCSH SCT004 BKN100
      TEMPO 3008/3012 4SM BR OVC004
     FM301200 12006KT P6SM VCSH BKN008 OVC030
     FM301700 12007KT P6SM -SHRA VCTS SCT015CB BKN035
     FM301900 11007KT P6SM VCSH BKN035
     FM010000 14003KT P6SM BKN040=

USA.gov is the U.S. government's official web portal to all federal, state and local government web resources and services.